Time;durP1;ratioP1;P1;durP2;ratioP2;P2;SDS_P1;SDS_P2;PMS_P1;PMS_P2;Temp;Humidity;BMP_temperature;BMP_pressure;BME280_temperature;BME280_humidity;BME280_pressure;Samples;Min_cycle;Max_cycle;Signal;HPM_P1;HPM_P2
2023/08/03 00:02:20;;;;;;;0.00;0.00;;;;;;;18.09;79.89;99648.19;7353988;19;20025;-58
2023/08/03 00:04:46;;;;;;;0.03;0.03;;;;;;;18.09;80.48;99658.75;7349947;19;20014;-57
2023/08/03 00:07:11;;;;;;;0.00;0.00;;;;;;;18.09;79.98;99659.59;7349531;19;20022;-57
2023/08/03 00:09:37;;;;;;;0.00;0.00;;;;;;;18.09;79.91;99661.41;7352241;19;20006;-57
2023/08/03 00:12:03;;;;;;;0.00;0.00;;;;;;;18.08;79.68;99675.56;7352965;19;20003;-56
2023/08/03 00:14:28;;;;;;;0.05;0.05;;;;;;;18.07;80.10;99671.25;7351487;19;20011;-57
2023/08/03 00:16:54;;;;;;;0.00;0.00;;;;;;;18.06;80.00;99667.78;7353835;19;20568;-55
2023/08/03 00:19:19;;;;;;;0.00;0.00;;;;;;;18.06;79.97;99669.56;7346999;19;20013;-57
2023/08/03 00:21:44;;;;;;;0.10;0.10;;;;;;;18.04;80.02;99677.56;7354406;19;20628;-57
2023/08/03 00:24:10;;;;;;;0.10;0.10;;;;;;;18.05;80.24;99678.44;7352599;19;20470;-57
2023/08/03 00:26:35;;;;;;;0.10;0.10;;;;;;;18.03;79.87;99681.19;7352655;19;20070;-57
2023/08/03 00:29:01;;;;;;;0.10;0.10;;;;;;;18.03;80.00;99688.25;7352210;19;20010;-57
2023/08/03 00:31:26;;;;;;;0.10;0.10;;;;;;;18.01;79.87;99688.38;7348967;19;20030;-58
2023/08/03 00:33:51;;;;;;;0.10;0.10;;;;;;;18.01;80.22;99698.09;7351310;19;20078;-58
2023/08/03 00:36:17;;;;;;;0.03;0.03;;;;;;;18.00;79.85;99696.41;7353545;19;20363;-58
2023/08/03 00:38:42;;;;;;;0.10;0.10;;;;;;;18.00;80.22;99704.34;7351377;19;20006;-56
2023/08/03 00:41:08;;;;;;;0.10;0.10;;;;;;;17.69;79.82;99661.53;7353941;19;20344;-55
2023/08/03 00:43:33;;;;;;;0.10;0.10;;;;;;;17.96;80.18;99711.63;7345813;19;20832;-56
2023/08/03 00:45:59;;;;;;;0.08;0.08;;;;;;;17.84;79.70;99702.75;7353769;19;20007;-57
2023/08/03 00:48:24;;;;;;;0.08;0.08;;;;;;;17.94;80.43;99723.22;7351258;19;20006;-57
2023/08/03 00:50:49;;;;;;;0.00;0.00;;;;;;;17.94;80.07;99723.22;7350393;19;20566;-56
2023/08/03 00:53:15;;;;;;;0.10;0.10;;;;;;;17.92;80.33;99731.28;7352161;19;20041;-57
2023/08/03 00:55:40;;;;;;;0.10;0.10;;;;;;;17.92;80.12;99730.44;7351106;19;20014;-57
2023/08/03 00:58:06;;;;;;;0.10;0.10;;;;;;;17.90;80.17;99735.81;7348211;19;20017;-57
2023/08/03 01:00:31;;;;;;;0.00;0.00;;;;;;;17.89;80.06;99732.34;7350969;19;20035;-57
2023/08/03 01:02:57;;;;;;;0.10;0.10;;;;;;;17.61;79.81;99687.59;7352300;19;20023;-56
2023/08/03 01:05:22;;;;;;;0.03;0.03;;;;;;;17.87;79.79;99733.38;7351203;19;20003;-58
2023/08/03 01:07:48;;;;;;;0.10;0.10;;;;;;;17.86;79.84;99751.03;7354175;19;20030;-55
2023/08/03 01:10:13;;;;;;;0.05;0.05;;;;;;;17.84;79.51;99746.78;7356493;19;20014;-56
2023/08/03 01:12:38;;;;;;;0.03;0.03;;;;;;;17.81;79.95;99745.22;7359500;19;20043;-58
2023/08/03 01:15:05;;;;;;;0.00;0.00;;;;;;;17.79;80.14;99740.97;7356068;19;20010;-57
2023/08/03 01:17:30;;;;;;;0.10;0.10;;;;;;;17.77;80.11;99749.00;7358866;19;20034;-56
2023/08/03 01:19:56;;;;;;;0.00;0.00;;;;;;;17.75;79.67;99745.63;7357885;19;20014;-57
2023/08/03 01:22:22;;;;;;;0.10;0.10;;;;;;;17.74;79.54;99753.63;7357623;19;20046;-58
2023/08/03 01:24:47;;;;;;;0.10;0.10;;;;;;;17.71;79.65;99752.03;7354521;19;20018;-56
2023/08/03 01:27:13;;;;;;;0.10;0.10;;;;;;;17.69;79.95;99751.31;7358946;19;20053;-57
2023/08/03 01:29:38;;;;;;;0.10;0.10;;;;;;;17.66;79.93;99754.13;7356862;19;20017;-56
2023/08/03 01:32:04;;;;;;;0.00;0.00;;;;;;;17.63;79.85;99752.53;7354494;19;20010;-56
2023/08/03 01:34:29;;;;;;;0.10;0.10;;;;;;;17.61;79.73;99758.88;7356906;19;20042;-57
2023/08/03 01:36:55;;;;;;;0.10;0.10;;;;;;;17.58;79.45;99759.06;7360132;19;20018;-56
2023/08/03 01:39:24;;;;;;;0.10;0.10;;;;;;;17.57;79.69;99765.31;7355660;19;20021;-57
2023/08/03 01:41:50;;;;;;;0.10;0.10;;;;;;;17.53;79.63;99771.72;7357422;19;20021;-56
2023/08/03 01:44:21;;;;;;;0.08;0.08;;;;;;;17.49;80.18;99770.28;7356262;19;20006;-57
2023/08/03 01:46:47;;;;;;;0.00;0.00;;;;;;;17.47;79.46;99774.78;7363813;19;20037;-55
2023/08/03 01:49:13;;;;;;;0.10;0.10;;;;;;;17.44;79.82;99778.50;7357841;19;20090;-57
2023/08/03 01:51:40;;;;;;;0.10;0.10;;;;;;;17.42;79.37;99779.53;7357112;19;20976;-57
2023/08/03 01:54:06;;;;;;;0.10;0.10;;;;;;;17.40;79.79;99784.06;7353960;19;20014;-57
2023/08/03 01:56:32;;;;;;;0.10;0.10;;;;;;;17.37;79.26;99793.00;7356977;19;20094;-56
2023/08/03 01:58:57;;;;;;;0.00;0.00;;;;;;;17.34;78.79;99794.06;7355132;19;20017;-57
2023/08/03 02:01:23;;;;;;;0.10;0.10;;;;;;;17.31;79.69;99782.88;7360609;19;20011;-57
2023/08/03 02:03:48;;;;;;;0.10;0.10;;;;;;;17.29;79.55;99790.88;7358241;19;20017;-57
2023/08/03 02:06:13;;;;;;;0.00;0.00;;;;;;;17.25;79.26;99794.66;7357408;19;20889;-57
2023/08/03 02:08:39;;;;;;;0.03;0.03;;;;;;;17.24;79.62;99792.97;7358420;19;20010;-57
2023/08/03 02:11:04;;;;;;;0.10;0.10;;;;;;;17.22;79.27;99802.78;7360276;19;20042;-57
2023/08/03 02:13:29;;;;;;;0.00;0.00;;;;;;;17.20;79.17;99803.81;7344923;19;20014;-57
2023/08/03 02:15:55;;;;;;;0.10;0.10;;;;;;;17.07;78.83;99795.84;7361024;19;20753;-56
2023/08/03 02:18:20;;;;;;;0.10;0.10;;;;;;;17.14;79.34;99810.34;7357373;19;20109;-58
2023/08/03 02:20:46;;;;;;;0.10;0.10;;;;;;;17.10;79.33;99817.59;7358684;19;20010;-56
2023/08/03 02:23:11;;;;;;;0.10;0.10;;;;;;;17.08;79.47;99821.25;7356098;19;20010;-58
2023/08/03 02:25:36;;;;;;;0.10;0.10;;;;;;;17.05;78.98;99824.13;7356874;19;20086;-55
2023/08/03 02:28:02;;;;;;;0.00;0.00;;;;;;;17.01;79.16;99833.16;7341111;19;20015;-57
2023/08/03 02:30:27;;;;;;;0.10;0.10;;;;;;;16.98;79.18;99828.94;7350217;19;20022;-57
2023/08/03 02:32:53;;;;;;;0.10;0.10;;;;;;;16.95;80.03;99834.41;7356163;19;20038;-57
2023/08/03 02:35:18;;;;;;;0.00;0.00;;;;;;;16.91;80.34;99837.31;7360024;19;20053;-56
2023/08/03 02:37:43;;;;;;;0.10;0.10;;;;;;;16.89;80.48;99841.84;7352382;19;20018;-58
2023/08/03 02:40:09;;;;;;;0.10;0.10;;;;;;;16.84;80.30;99843.00;7357395;19;20046;-56
2023/08/03 02:42:36;;;;;;;0.00;0.00;;;;;;;16.82;80.42;99846.66;7358548;19;20010;-57
2023/08/03 02:45:02;;;;;;;0.10;0.10;;;;;;;16.77;80.12;99852.19;7357150;19;20030;-57
2023/08/03 02:47:27;;;;;;;0.10;0.10;;;;;;;16.73;80.57;99845.44;7359276;19;20007;-56
2023/08/03 02:49:53;;;;;;;0.00;0.00;;;;;;;16.69;80.67;99851.81;7359687;19;20021;-56
2023/08/03 02:52:18;;;;;;;0.10;0.10;;;;;;;16.65;80.78;99852.94;7354796;19;20006;-57
2023/08/03 02:54:43;;;;;;;0.08;0.08;;;;;;;16.61;80.66;99851.41;7358771;19;20041;-56
2023/08/03 02:57:09;;;;;;;0.08;0.08;;;;;;;16.55;80.64;99854.44;7358637;19;20082;-57
2023/08/03 02:59:34;;;;;;;0.10;0.10;;;;;;;16.51;80.86;99866.94;7357803;19;20469;-54
2023/08/03 03:02:00;;;;;;;0.10;0.10;;;;;;;16.47;80.52;99864.59;7358043;19;20038;-58
2023/08/03 03:04:25;;;;;;;0.00;0.00;;;;;;;16.42;80.78;99866.66;7356414;19;20134;-56
2023/08/03 03:06:50;;;;;;;0.00;0.00;;;;;;;16.38;80.79;99870.44;7357325;19;20097;-57
2023/08/03 03:09:16;;;;;;;0.08;0.08;;;;;;;16.30;81.05;99869.09;7353190;19;20018;-56
2023/08/03 03:11:41;;;;;;;0.00;0.00;;;;;;;16.26;81.14;99875.47;7357651;19;20034;-56
2023/08/03 03:14:07;;;;;;;0.00;0.00;;;;;;;16.22;81.56;99873.97;7357501;19;20788;-56
2023/08/03 03:16:32;;;;;;;0.10;0.10;;;;;;;16.19;81.22;99882.06;7355717;19;20021;-56
2023/08/03 03:18:57;;;;;;;0.00;0.00;;;;;;;16.15;81.35;99888.44;7344674;19;20017;-55
2023/08/03 03:21:23;;;;;;;0.10;0.10;;;;;;;16.12;81.56;99886.00;7344170;19;20025;-57
2023/08/03 03:23:48;;;;;;;0.00;0.00;;;;;;;16.07;81.68;99890.69;7349405;19;20018;-57
2023/08/03 03:26:14;;;;;;;0.10;0.10;;;;;;;16.06;81.23;99891.59;7358816;19;20561;-56
2023/08/03 03:28:40;;;;;;;0.00;0.00;;;;;;;16.02;81.33;99892.75;7350441;19;20355;-57
2023/08/03 03:31:05;;;;;;;0.10;0.10;;;;;;;15.98;81.24;99894.69;7357880;19;20018;-57
2023/08/03 03:33:30;;;;;;;0.10;0.10;;;;;;;15.95;81.05;99901.91;7352887;19;20027;-57
2023/08/03 03:35:56;;;;;;;0.00;0.00;;;;;;;15.91;81.10;99895.13;7358285;19;20447;-57
2023/08/03 03:38:21;;;;;;;0.00;0.00;;;;;;;15.87;81.05;99901.53;7357811;19;20018;-55
2023/08/03 03:40:47;;;;;;;0.00;0.00;;;;;;;15.83;81.44;99904.31;7357204;19;20014;-55
2023/08/03 03:43:12;;;;;;;0.10;0.10;;;;;;;15.79;81.47;99910.69;7358516;19;20492;-57
2023/08/03 03:45:37;;;;;;;0.10;0.10;;;;;;;15.77;81.61;99917.84;7352180;19;20019;-56
2023/08/03 03:48:03;;;;;;;0.10;0.10;;;;;;;15.75;81.77;99930.22;7356578;19;20379;-55
2023/08/03 03:50:29;;;;;;;0.00;0.00;;;;;;;15.67;81.58;99921.94;7353700;19;20036;-54
2023/08/03 03:52:55;;;;;;;0.00;0.00;;;;;;;15.67;81.61;99935.09;7339139;19;20102;-52
2023/08/03 03:55:20;;;;;;;0.00;0.00;;;;;;;15.62;81.82;99929.19;7357438;19;20479;-57
2023/08/03 03:57:45;;;;;;;0.10;0.10;;;;;;;15.65;81.86;99938.72;7358097;19;20160;-56
2023/08/03 04:00:11;;;;;;;0.10;0.10;;;;;;;15.62;82.03;99942.34;7352916;19;20018;-56
2023/08/03 04:02:37;;;;;;;0.00;0.00;;;;;;;15.60;81.99;99951.25;7357666;19;20011;-56
2023/08/03 04:05:02;;;;;;;0.00;0.00;;;;;;;15.48;81.81;99939.63;7356177;19;20089;-57
2023/08/03 04:07:28;;;;;;;0.00;0.00;;;;;;;15.54;82.19;99960.34;7356385;19;20014;-55
2023/08/03 04:09:53;;;;;;;0.10;0.10;;;;;;;15.52;82.23;99954.31;7358620;19;20016;-56
2023/08/03 04:12:18;;;;;;;0.00;0.00;;;;;;;15.50;82.13;99958.81;7356151;19;20015;-57
2023/08/03 04:14:44;;;;;;;0.03;0.03;;;;;;;15.49;82.27;99971.13;7355054;19;20010;-56
2023/08/03 04:17:09;;;;;;;0.10;0.10;;;;;;;15.47;82.36;99973.00;7358124;19;20368;-57
2023/08/03 04:19:35;;;;;;;0.10;0.10;;;;;;;15.48;82.36;99979.09;7357244;19;20026;-55
2023/08/03 04:22:00;;;;;;;0.00;0.00;;;;;;;15.47;81.64;99974.78;7349473;19;20006;-56
2023/08/03 04:24:26;;;;;;;0.00;0.00;;;;;;;15.45;81.65;99974.84;7357712;19;20081;-54
2023/08/03 04:26:51;;;;;;;0.00;0.00;;;;;;;15.41;82.24;99975.09;7355306;19;20474;-57
2023/08/03 04:29:16;;;;;;;0.10;0.10;;;;;;;15.43;81.67;99994.28;7354343;19;20081;-57
2023/08/03 04:31:42;;;;;;;0.00;0.00;;;;;;;15.41;81.76;99988.25;7356821;19;20014;-57
2023/08/03 04:34:07;;;;;;;0.00;0.00;;;;;;;15.40;81.99;99997.91;7352367;19;20014;-56
2023/08/03 04:36:33;;;;;;;0.10;0.10;;;;;;;15.35;81.69;99988.56;7356278;19;20014;-57
2023/08/03 04:38:58;;;;;;;0.00;0.00;;;;;;;15.36;81.99;99998.16;7354047;19;20724;-57
2023/08/03 04:41:23;;;;;;;0.00;0.00;;;;;;;15.34;82.22;99997.41;7353993;19;20050;-58
2023/08/03 04:43:49;;;;;;;0.10;0.10;;;;;;;15.32;82.32;100005.38;7353420;19;20025;-56
2023/08/03 04:46:14;;;;;;;0.10;0.10;;;;;;;15.29;82.08;100005.53;7357782;19;20041;-57
2023/08/03 04:48:40;;;;;;;0.10;0.10;;;;;;;15.20;81.87;100000.75;7351518;19;20697;-55
2023/08/03 04:51:06;;;;;;;0.00;0.00;;;;;;;15.28;82.29;100017.00;7352564;19;20028;-57
2023/08/03 04:53:31;;;;;;;0.10;0.10;;;;;;;15.21;82.07;100008.59;7354482;19;20856;-57
2023/08/03 04:55:56;;;;;;;0.00;0.00;;;;;;;14.70;82.38;99923.63;7353548;19;20020;-56
2023/08/03 04:58:22;;;;;;;0.10;0.10;;;;;;;15.26;82.42;100011.84;7352766;19;20049;-56
2023/08/03 05:00:47;;;;;;;0.10;0.10;;;;;;;15.27;82.24;100023.19;7351615;19;20044;-57
2023/08/03 05:03:13;;;;;;;0.08;0.08;;;;;;;15.27;82.32;100017.94;7354389;19;20044;-56
2023/08/03 05:05:38;;;;;;;0.10;0.10;;;;;;;15.27;82.29;100023.19;7355425;19;20031;-55
2023/08/03 05:08:03;;;;;;;0.03;0.03;;;;;;;15.29;82.18;100032.69;7353746;19;20050;-57
2023/08/03 05:10:29;;;;;;;0.10;0.10;;;;;;;15.27;81.77;100029.31;7353764;19;20025;-55
2023/08/03 05:12:54;;;;;;;0.10;0.10;;;;;;;15.28;81.74;100024.88;7356075;19;20029;-54
2023/08/03 05:15:20;;;;;;;0.00;0.00;;;;;;;15.28;81.66;100031.00;7352334;19;20052;-57
2023/08/03 05:17:48;;;;;;;0.00;0.00;;;;;;;15.22;81.45;100020.81;7353600;19;20018;-57
2023/08/03 05:20:13;;;;;;;0.10;0.10;;;;;;;15.29;81.33;100032.69;7349438;19;20007;-58
2023/08/03 05:22:39;;;;;;;0.00;0.00;;;;;;;15.28;81.21;100041.53;7355382;19;20041;-56
2023/08/03 05:25:05;;;;;;;0.00;0.00;;;;;;;15.12;81.41;100013.47;7353167;19;20078;-55
2023/08/03 05:27:30;;;;;;;0.10;0.10;;;;;;;15.31;81.53;100046.63;7355725;19;20014;-58
2023/08/03 05:29:58;;;;;;;0.00;0.00;;;;;;;15.31;81.62;100049.25;7353921;19;20053;-56
2023/08/03 05:32:26;;;;;;;0.00;0.00;;;;;;;15.35;81.42;100052.56;7354215;19;20014;-55
2023/08/03 05:34:52;;;;;;;0.00;0.00;;;;;;;15.35;81.60;100062.25;7355958;19;20021;-57
2023/08/03 05:37:17;;;;;;;0.10;0.10;;;;;;;15.25;81.68;100041.66;7355467;19;20014;-57
2023/08/03 05:39:42;;;;;;;0.00;0.00;;;;;;;15.28;81.81;100044.16;7354373;19;20003;-57
2023/08/03 05:42:11;;;;;;;0.10;0.10;;;;;;;15.43;81.55;100071.44;7352837;19;20022;-57
2023/08/03 05:44:37;;;;;;;0.05;0.05;;;;;;;15.44;81.95;100083.66;7353757;19;20010;-57
2023/08/03 05:47:02;;;;;;;0.08;0.08;;;;;;;15.48;81.97;100089.63;7350346;19;20021;-56
2023/08/03 05:49:29;;;;;;;0.10;0.10;;;;;;;15.50;82.02;100085.09;7354671;19;20006;-56
2023/08/03 05:51:54;;;;;;;0.10;0.10;;;;;;;15.54;81.61;100089.28;7353241;19;20020;-57
2023/08/03 05:54:19;;;;;;;0.10;0.10;;;;;;;15.57;81.64;100094.41;7359028;19;20014;-56
2023/08/03 05:56:46;;;;;;;0.08;0.08;;;;;;;15.62;81.89;100091.53;7359216;19;20013;-57
2023/08/03 05:59:19;;;;;;;0.10;0.10;;;;;;;15.70;81.85;100100.72;7357095;19;20011;-57
2023/08/03 06:01:48;;;;;;;0.00;0.00;;;;;;;15.74;81.86;100107.53;7359833;19;20034;-56
2023/08/03 06:04:14;;;;;;;0.10;0.10;;;;;;;15.79;81.66;100102.88;7358432;19;20166;-56
2023/08/03 06:06:40;;;;;;;0.10;0.10;;;;;;;15.85;81.41;100108.75;7358130;19;20377;-56
2023/08/03 06:09:05;;;;;;;0.00;0.00;;;;;;;15.92;81.84;100118.03;7360287;19;20006;-57
2023/08/03 06:11:31;;;;;;;0.10;0.10;;;;;;;15.99;81.07;100124.66;7358658;19;20018;-57
2023/08/03 06:13:57;;;;;;;0.08;0.08;;;;;;;16.02;81.43;100121.84;7359285;19;20074;-57
2023/08/03 06:16:26;;;;;;;0.10;0.10;;;;;;;16.09;81.44;100133.75;7354084;19;20494;-57
2023/08/03 06:18:54;;;;;;;0.05;0.05;;;;;;;16.18;81.25;100137.66;7357662;19;20011;-55
2023/08/03 06:21:20;;;;;;;0.00;0.00;;;;;;;16.18;80.85;100133.25;7356742;19;20015;-57
2023/08/03 06:23:47;;;;;;;0.10;0.10;;;;;;;16.27;81.01;100142.41;7354721;19;20017;-55
2023/08/03 06:26:14;;;;;;;0.10;0.10;;;;;;;16.30;80.80;100137.84;7357833;19;20025;-57
2023/08/03 06:28:40;;;;;;;0.00;0.00;;;;;;;16.35;80.82;100135.78;7353137;19;20014;-57
2023/08/03 06:31:15;;;;;;;0.00;0.00;;;;;;;16.46;80.80;100142.25;7358838;19;20027;-57
2023/08/03 06:33:43;;;;;;;0.10;0.10;;;;;;;16.46;80.74;100144.88;7357978;19;20010;-57
2023/08/03 06:36:12;;;;;;;0.10;0.10;;;;;;;16.52;80.20;100147.16;7357245;19;20086;-56
2023/08/03 06:38:37;;;;;;;0.10;0.10;;;;;;;16.41;80.02;100133.75;7358704;19;20018;-57
2023/08/03 06:41:03;;;;;;;0.10;0.10;;;;;;;16.56;79.76;100156.59;7358043;19;20569;-57
2023/08/03 06:43:30;;;;;;;0.10;0.10;;;;;;;16.50;80.25;100146.41;7356459;19;20481;-55
2023/08/03 06:45:55;;;;;;;0.10;0.10;;;;;;;16.62;80.21;100174.72;7360683;19;20066;-56
2023/08/03 06:48:21;;;;;;;0.10;0.10;;;;;;;16.65;79.58;100179.81;7354739;19;20372;-57
2023/08/03 06:50:46;;;;;;;0.00;0.00;;;;;;;16.67;79.98;100177.09;7359053;19;20006;-56
2023/08/03 06:53:12;;;;;;;0.03;0.03;;;;;;;16.65;79.46;100173.72;7354486;19;20024;-56
2023/08/03 06:55:38;;;;;;;0.10;0.10;;;;;;;16.71;80.08;100195.31;7355828;19;20033;-58
2023/08/03 06:58:03;;;;;;;0.10;0.10;;;;;;;16.74;79.97;100184.63;7356891;19;20016;-56
2023/08/03 07:00:29;;;;;;;0.10;0.10;;;;;;;16.67;80.00;100177.94;7349474;19;20715;-57
2023/08/03 07:02:55;;;;;;;0.10;0.10;;;;;;;16.67;79.05;100183.22;7350806;19;20002;-56
2023/08/03 07:05:20;;;;;;;0.08;0.08;;;;;;;16.73;79.14;100192.63;7355534;19;20764;-55
2023/08/03 07:07:46;;;;;;;0.10;0.10;;;;;;;16.86;79.25;100205.00;7354794;19;20818;-57
2023/08/03 07:10:11;;;;;;;0.10;0.10;;;;;;;16.89;79.16;100211.91;7356980;19;20013;-56
2023/08/03 07:12:37;;;;;;;0.10;0.10;;;;;;;16.92;79.13;100214.34;7351022;19;20077;-57
2023/08/03 07:15:04;;;;;;;0.10;0.10;;;;;;;16.92;78.43;100219.63;7350745;19;20347;-56
2023/08/03 07:17:29;;;;;;;;;;;;;;;17.02;79.74;100223.44;7357916;19;20015;-55
2023/08/03 07:19:55;;;;;;;0.10;0.10;;;;;;;16.97;78.59;100227.28;7356378;19;19926;-56
2023/08/03 07:22:21;;;;;;;0.00;0.00;;;;;;;16.97;78.16;100229.91;7354747;19;20011;-56
2023/08/03 07:24:47;;;;;;;0.10;0.10;;;;;;;16.84;78.31;100212.16;7356065;19;20872;-56
2023/08/03 07:27:13;;;;;;;0.10;0.10;;;;;;;16.95;77.71;100234.44;7357530;19;20017;-57
2023/08/03 07:29:38;;;;;;;0.10;0.10;;;;;;;16.95;78.18;100240.56;7355870;19;20769;-57
2023/08/03 07:32:04;;;;;;;0.10;0.10;;;;;;;16.96;77.98;100236.16;7349337;19;20002;-57
2023/08/03 07:34:30;;;;;;;0.10;0.10;;;;;;;16.97;77.54;100245.75;7355038;19;20981;-57
2023/08/03 07:36:56;;;;;;;0.00;0.00;;;;;;;16.97;77.46;100253.66;7357261;19;20107;-56
2023/08/03 07:39:22;;;;;;;0.10;0.10;;;;;;;16.98;77.93;100255.34;7356312;19;20058;-56
2023/08/03 07:41:48;;;;;;;0.00;0.00;;;;;;;16.98;77.80;100265.91;7345284;19;20007;-57
2023/08/03 07:44:17;;;;;;;0.00;0.00;;;;;;;17.02;78.20;100257.75;7355803;19;20014;-56
2023/08/03 07:46:44;;;;;;;0.10;0.10;;;;;;;16.96;78.24;100258.09;7349758;19;20028;-56
2023/08/03 07:49:09;;;;;;;0.10;0.10;;;;;;;17.01;76.93;100263.97;7355897;19;20022;-56
2023/08/03 07:51:35;;;;;;;0.10;0.10;;;;;;;16.99;77.78;100257.09;7351502;19;20039;-55
2023/08/03 07:54:00;;;;;;;0.10;0.10;;;;;;;17.03;77.02;100258.59;7348819;19;20098;-55
2023/08/03 07:56:25;;;;;;;0.10;0.10;;;;;;;16.94;76.86;100248.59;7355692;19;20361;-58
2023/08/03 07:58:51;;;;;;;0.10;0.10;;;;;;;17.08;76.33;100267.09;7347410;19;20042;-57
2023/08/03 08:01:18;;;;;;;0.08;0.08;;;;;;;17.11;76.89;100278.34;7355420;19;20038;-55
2023/08/03 08:03:43;;;;;;;0.10;0.10;;;;;;;17.15;77.13;100267.63;7353893;19;20042;-55
2023/08/03 08:06:15;;;;;;;0.10;0.10;;;;;;;17.10;76.19;100254.69;7353371;19;20022;-54
2023/08/03 08:08:41;;;;;;;0.10;0.10;;;;;;;17.26;76.69;100281.88;7353167;19;20090;-56
2023/08/03 08:11:07;;;;;;;0.05;0.05;;;;;;;17.30;75.56;100274.66;7356395;19;20014;-56
2023/08/03 08:13:33;;;;;;;0.00;0.00;;;;;;;17.42;75.80;100286.28;7354434;19;20015;-58
2023/08/03 08:16:06;;;;;;;0.00;0.00;;;;;;;17.52;76.07;100293.59;7354877;19;20010;-57
2023/08/03 08:18:32;;;;;;;0.10;0.10;;;;;;;17.56;75.22;100299.53;7356576;19;20751;-56
2023/08/03 08:21:03;;;;;;;0.10;0.10;;;;;;;17.67;75.23;100302.41;7353202;19;20024;-57
2023/08/03 08:23:29;;;;;;;0.10;0.10;;;;;;;17.69;74.42;100311.09;7354743;19;20515;-56
2023/08/03 08:25:55;;;;;;;0.10;0.10;;;;;;;17.75;75.36;100320.50;7357853;19;20014;-55
2023/08/03 08:28:20;;;;;;;0.00;0.00;;;;;;;17.80;74.94;100313.16;7350939;19;20021;-55
2023/08/03 08:30:46;;;;;;;0.10;0.10;;;;;;;17.83;74.59;100324.38;7355269;19;20018;-56
2023/08/03 08:33:14;;;;;;;0.08;0.08;;;;;;;17.85;74.34;100327.78;7351596;19;20015;-57
2023/08/03 08:35:39;;;;;;;0.10;0.10;;;;;;;17.86;74.05;100320.72;7354478;19;20014;-57
2023/08/03 08:38:05;;;;;;;0.10;0.10;;;;;;;17.89;74.22;100329.31;7354914;19;20686;-56
2023/08/03 08:40:35;;;;;;;0.10;0.10;;;;;;;17.99;73.97;100329.59;7354598;19;20034;-57
2023/08/03 08:43:00;;;;;;;0.10;0.10;;;;;;;17.97;74.65;100322.72;7352749;19;20026;-57
2023/08/03 08:45:26;;;;;;;0.10;0.10;;;;;;;18.13;74.12;100336.69;7356351;19;20037;-56
2023/08/03 08:47:51;;;;;;;0.10;0.10;;;;;;;18.23;74.41;100347.56;7351266;19;20066;-57
2023/08/03 08:50:17;;;;;;;0.00;0.00;;;;;;;18.05;73.47;100296.69;7354779;19;20007;-54
2023/08/03 08:52:44;;;;;;;0.00;0.00;;;;;;;18.51;73.42;100346.75;7352916;19;20396;-56
2023/08/03 08:55:16;;;;;;;;;;;;;;;18.70;76.10;100352.63;7328159;19;20027;-56
2023/08/03 08:57:42;;;;;;;0.05;0.05;;;;;;;18.56;72.09;100323.53;7348194;19;19919;-57
2023/08/03 09:00:08;;;;;;;0.10;0.10;;;;;;;18.76;72.32;100346.97;7355122;19;20017;-56
2023/08/03 09:02:35;;;;;;;0.10;0.10;;;;;;;18.81;71.70;100349.34;7351091;19;20041;-55
2023/08/03 09:05:19;;;;;;;0.10;0.10;;;;;;;18.91;72.92;100356.59;7354228;19;20018;-56
2023/08/03 09:07:56;;;;;;;0.00;0.00;;;;;;;18.86;69.84;100356.03;7351543;19;20038;-55
2023/08/03 09:10:21;;;;;;;0.10;0.10;;;;;;;18.84;70.72;100355.28;7353917;19;20780;-57
2023/08/03 09:12:47;;;;;;;0.10;0.10;;;;;;;18.83;71.18;100361.50;7350247;19;20022;-57
2023/08/03 09:15:12;;;;;;;0.10;0.10;;;;;;;18.82;71.01;100367.75;7353373;19;20019;-56
2023/08/03 09:17:37;;;;;;;0.10;0.10;;;;;;;18.81;70.90;100366.06;7350860;19;20336;-55
2023/08/03 09:20:03;;;;;;;0.10;0.10;;;;;;;18.82;70.60;100362.47;7343558;19;20608;-56
2023/08/03 09:22:28;;;;;;;0.10;0.10;;;;;;;18.87;69.91;100362.19;7350560;19;20010;-57
2023/08/03 09:25:01;;;;;;;0.00;0.00;;;;;;;18.99;70.90;100368.50;7353460;19;20022;-57
2023/08/03 09:27:27;;;;;;;0.03;0.03;;;;;;;19.02;68.77;100374.44;7353367;19;20014;-56
2023/08/03 09:29:59;;;;;;;0.10;0.10;;;;;;;19.13;70.69;100377.25;7361298;19;20010;-57
2023/08/03 09:32:34;;;;;;;0.10;0.10;;;;;;;19.20;70.48;100380.34;7359641;19;20041;-55
2023/08/03 09:35:00;;;;;;;0.08;0.08;;;;;;;19.22;68.78;100381.13;7361215;19;20010;-55
2023/08/03 09:37:36;;;;;;;0.10;0.10;;;;;;;19.31;70.27;100385.84;7355633;19;20030;-56
2023/08/03 09:40:05;;;;;;;0.10;0.10;;;;;;;19.23;69.08;100366.09;7359344;19;20014;-56
2023/08/03 09:42:32;;;;;;;0.10;0.10;;;;;;;19.36;68.91;100372.28;7354904;19;20596;-57
2023/08/03 09:45:03;;;;;;;0.10;0.10;;;;;;;19.45;69.02;100375.19;7361383;19;20082;-56
2023/08/03 09:47:36;;;;;;;0.10;0.10;;;;;;;19.47;67.81;100379.56;7358531;19;20030;-55
2023/08/03 09:50:03;;;;;;;0.00;0.00;;;;;;;19.54;69.22;100391.44;7358421;19;20015;-57
2023/08/03 09:52:30;;;;;;;0.10;0.10;;;;;;;19.56;68.38;100373.63;7356067;19;20026;-56
2023/08/03 09:55:10;;;;;;;0.10;0.10;;;;;;;19.73;69.32;100386.69;7356885;19;20034;-56
2023/08/03 09:57:40;;;;;;;0.03;0.03;;;;;;;19.72;68.13;100387.63;7357927;19;20415;-57
2023/08/03 10:00:08;;;;;;;0.10;0.10;;;;;;;19.71;68.01;100393.88;7356109;19;20002;-55
2023/08/03 10:02:44;;;;;;;0.00;0.00;;;;;;;19.74;67.97;100391.03;7361660;19;20006;-57
2023/08/03 10:05:16;;;;;;;0.10;0.10;;;;;;;19.74;68.75;100396.31;7358238;19;20014;-56
2023/08/03 10:07:49;;;;;;;0.10;0.10;;;;;;;19.76;68.38;100399.72;7357863;19;20015;-56
2023/08/03 10:10:17;;;;;;;0.10;0.10;;;;;;;19.79;68.27;100396.88;7356299;19;20010;-57
2023/08/03 10:12:55;;;;;;;0.10;0.10;;;;;;;19.98;69.08;100395.66;7355512;19;20011;-57
2023/08/03 10:15:22;;;;;;;0.10;0.10;;;;;;;20.10;68.10;100400.97;7354906;19;20027;-57
2023/08/03 10:17:48;;;;;;;0.10;0.10;;;;;;;20.33;66.89;100406.53;7359550;19;20031;-58
2023/08/03 10:20:14;;;;;;;0.10;0.10;;;;;;;20.56;66.13;100412.94;7357054;19;20054;-58
2023/08/03 10:23:14;;;;;;;0.10;0.10;;;;;;;20.88;68.99;100414.22;7354108;19;20030;-56
2023/08/03 10:25:54;;;;;;;0.10;0.10;;;;;;;21.04;68.82;100403.38;7236135;19;2004491;-58
2023/08/03 10:28:38;;;;;;;0.10;0.10;;;;;;;21.20;66.84;100417.25;7358571;19;20018;-55
2023/08/03 10:31:18;;;;;;;0.10;0.10;;;;;;;21.28;66.72;100406.06;7357781;19;20017;-56
2023/08/03 10:33:48;;;;;;;0.10;0.10;;;;;;;21.40;62.74;100426.47;7359367;19;20089;-56
2023/08/03 10:36:26;;;;;;;0.10;0.10;;;;;;;21.47;64.11;100432.19;7358526;19;20018;-57
2023/08/03 10:38:56;;;;;;;0.10;0.10;;;;;;;21.44;60.61;100437.69;7358084;19;20018;-57
2023/08/03 10:41:26;;;;;;;0.10;0.10;;;;;;;21.42;62.62;100437.81;7360414;19;20006;-56
2023/08/03 10:44:11;;;;;;;0.10;0.10;;;;;;;21.44;64.55;100443.91;7355849;19;20050;-56
2023/08/03 10:46:48;;;;;;;0.10;0.10;;;;;;;21.40;64.38;100442.41;7347608;19;20007;-57
2023/08/03 10:49:27;;;;;;;0.10;0.10;;;;;;;21.45;63.05;100455.38;7358458;19;20029;-57
2023/08/03 10:52:18;;;;;;;0.10;0.10;;;;;;;21.48;63.36;100453.31;7359375;19;20013;-57
2023/08/03 10:54:45;;;;;;;0.10;0.10;;;;;;;21.44;62.55;100449.22;7359233;19;20038;-58
2023/08/03 10:57:12;;;;;;;0.10;0.10;;;;;;;21.50;59.77;100450.56;7357301;19;20023;-57
2023/08/03 10:59:43;;;;;;;0.10;0.10;;;;;;;21.61;62.43;100460.41;7356150;19;20014;-57
2023/08/03 11:02:18;;;;;;;0.10;0.10;;;;;;;21.67;61.30;100465.28;7356986;19;20019;-56
2023/08/03 11:04:44;;;;;;;0.10;0.10;;;;;;;21.65;60.08;100467.22;7350753;19;20006;-57
2023/08/03 11:07:11;;;;;;;0.10;0.10;;;;;;;21.58;60.69;100458.81;7357509;19;20061;-56
2023/08/03 11:09:37;;;;;;;0.10;0.10;;;;;;;21.71;59.38;100478.25;7359762;19;20106;-57
2023/08/03 11:12:04;;;;;;;0.00;0.00;;;;;;;21.78;58.31;100473.31;7351990;19;20119;-58
2023/08/03 11:14:29;;;;;;;0.10;0.10;;;;;;;21.81;59.28;100478.41;7360903;19;20014;-57
2023/08/03 11:16:55;;;;;;;0.10;0.10;;;;;;;21.82;58.54;100468.63;7352422;19;20031;-54
2023/08/03 11:19:23;;;;;;;0.10;0.10;;;;;;;21.92;59.51;100474.97;7358819;19;20014;-57
2023/08/03 11:21:49;;;;;;;0.05;0.05;;;;;;;22.05;60.93;100480.22;7354992;19;20021;-57
2023/08/03 11:24:15;;;;;;;0.10;0.10;;;;;;;22.21;60.02;100472.84;7361256;19;20003;-53
2023/08/03 11:26:41;;;;;;;0.10;0.10;;;;;;;22.54;57.99;100480.91;7357027;19;20030;-56
2023/08/03 11:29:07;;;;;;;0.10;0.10;;;;;;;22.81;58.23;100479.78;7357070;19;20014;-57